Time;durP1;ratioP1;P1;durP2;ratioP2;P2;SDS_P1;SDS_P2;PMS_P1;PMS_P2;Temp;Humidity;BMP_temperature;BMP_pressure;BME280_temperature;BME280_humidity;BME280_pressure;Samples;Min_cycle;Max_cycle;Signal;HPM_P1;HPM_P2
2020/12/11 00:02:03;;;;;;;21.42;12.27;;;2.60;83.20;;;;;;5030627;28;20388;-65
2020/12/11 00:04:29;;;;;;;22.05;12.27;;;2.60;83.10;;;;;;5030777;28;20075;-65
2020/12/11 00:06:56;;;;;;;22.55;11.38;;;2.60;83.10;;;;;;5029444;28;20041;-65
2020/12/11 00:09:22;;;;;;;23.00;11.75;;;2.70;83.20;;;;;;5014139;28;20072;-65
2020/12/11 00:11:48;;;;;;;21.23;11.65;;;2.70;83.00;;;;;;5024698;28;20049;-65
2020/12/11 00:14:13;;;;;;;23.70;12.95;;;2.70;83.00;;;;;;5030237;28;20545;-65
2020/12/11 00:16:39;;;;;;;20.02;11.02;;;2.70;83.10;;;;;;5031184;28;20037;-65
2020/12/11 00:19:04;;;;;;;20.77;11.23;;;2.70;83.00;;;;;;5031565;28;20156;-65
2020/12/11 00:21:40;;;;;;;19.08;11.52;;;2.80;82.90;;;;;;5029760;28;20065;-65
2020/12/11 00:24:07;;;;;;;20.80;10.95;;;2.80;82.80;;;;;;5037624;28;20026;-68
2020/12/11 00:26:32;;;;;;;22.02;12.23;;;2.80;82.70;;;;;;5007023;28;20053;-66
2020/12/11 00:28:58;;;;;;;22.85;11.57;;;2.80;82.80;;;;;;5032089;28;20067;-66
2020/12/11 00:31:25;;;;;;;23.95;11.90;;;2.80;82.80;;;;;;5030684;28;20024;-65
2020/12/11 00:33:51;;;;;;;23.20;11.80;;;2.80;82.90;;;;;;5030738;28;20026;-65
2020/12/11 00:36:17;;;;;;;24.70;12.30;;;2.80;82.70;;;;;;5030936;28;20432;-66
2020/12/11 00:38:43;;;;;;;24.75;12.90;;;2.70;82.70;;;;;;5032447;28;20065;-64
2020/12/11 00:41:08;;;;;;;25.55;13.15;;;2.70;82.80;;;;;;5029336;28;20397;-64
2020/12/11 00:43:35;;;;;;;26.83;12.70;;;2.70;82.90;;;;;;5034158;28;20057;-64
2020/12/11 00:46:00;;;;;;;27.98;13.55;;;2.60;82.80;;;;;;5025152;28;20091;-64
2020/12/11 00:48:26;;;;;;;28.42;14.02;;;2.60;82.90;;;;;;5031362;28;20474;-64
2020/12/11 00:50:51;;;;;;;23.52;13.18;;;2.60;83.00;;;;;;5027790;28;20109;-64
2020/12/11 00:53:17;;;;;;;24.75;13.27;;;2.60;83.00;;;;;;5030456;28;20037;-64
2020/12/11 00:55:42;;;;;;;25.40;14.23;;;2.60;83.00;;;;;;5031301;28;20045;-64
2020/12/11 00:58:08;;;;;;;25.30;12.73;;;2.70;83.10;;;;;;5031242;28;20069;-65
2020/12/11 01:00:34;;;;;;;23.45;13.88;;;2.70;83.00;;;;;;5029130;28;20017;-64
2020/12/11 01:03:00;;;;;;;23.50;12.63;;;2.70;83.10;;;;;;5030126;28;20414;-64
2020/12/11 01:05:25;;;;;;;22.67;13.23;;;2.70;83.00;;;;;;5029372;28;20041;-64
2020/12/11 01:07:51;;;;;;;27.42;14.27;;;2.70;83.00;;;;;;5031134;28;20045;-64
2020/12/11 01:10:16;;;;;;;27.50;14.35;;;2.70;83.00;;;;;;5030456;28;21399;-64
2020/12/11 01:12:42;;;;;;;24.58;13.82;;;2.80;83.20;;;;;;5031600;28;20040;-64
2020/12/11 01:15:07;;;;;;;26.25;14.02;;;2.70;83.00;;;;;;5031100;28;20033;-64
2020/12/11 01:17:33;;;;;;;29.60;13.68;;;2.70;82.90;;;;;;5030829;28;20160;-64
2020/12/11 01:19:58;;;;;;;26.80;13.63;;;2.70;82.90;;;;;;5030530;28;20037;-64
2020/12/11 01:22:24;;;;;;;25.77;13.48;;;2.70;83.00;;;;;;5023713;28;20064;-64
2020/12/11 01:24:50;;;;;;;28.10;14.35;;;2.70;82.90;;;;;;5030533;28;20045;-64
2020/12/11 01:27:15;;;;;;;23.48;13.73;;;2.70;83.00;;;;;;5030836;28;20026;-64
2020/12/11 01:29:41;;;;;;;28.48;13.73;;;2.70;83.00;;;;;;5028748;28;20037;-64
2020/12/11 01:32:06;;;;;;;23.65;12.90;;;2.70;82.90;;;;;;5014186;28;20029;-64
2020/12/11 01:34:32;;;;;;;27.45;13.65;;;2.70;83.00;;;;;;5030439;28;20041;-64
2020/12/11 01:37:04;;;;;;;24.92;13.50;;;2.70;83.00;;;;;;5030348;28;20030;-64
2020/12/11 01:39:30;;;;;;;;;;;2.70;83.00;;;;;;5029787;28;20057;-64
2020/12/11 01:41:56;;;;;;;27.98;13.90;;;2.70;83.00;;;;;;5013958;28;19917;-64
2020/12/11 01:44:22;;;;;;;29.63;14.40;;;2.70;82.90;;;;;;5029360;28;20032;-64
2020/12/11 01:46:56;;;;;;;26.17;13.75;;;2.60;83.10;;;;;;5031069;28;20021;-64
2020/12/11 01:49:22;;;;;;;27.75;14.48;;;2.60;83.10;;;;;;5026136;28;20030;-64
2020/12/11 01:51:50;;;;;;;26.95;13.68;;;2.60;83.10;;;;;;5028225;28;20091;-64
2020/12/11 01:54:16;;;;;;;27.95;14.35;;;2.60;83.10;;;;;;5026700;28;20048;-65
2020/12/11 01:56:51;;;;;;;29.60;14.68;;;2.60;83.10;;;;;;5029938;28;20104;-64
2020/12/11 01:59:26;;;;;;;26.40;14.35;;;2.60;83.10;;;;;;5029865;28;20056;-64
2020/12/11 02:01:57;;;;;;;26.83;13.40;;;2.60;83.10;;;;;;5028943;28;20026;-64
2020/12/11 02:04:23;;;;;;;27.10;15.20;;;2.60;83.00;;;;;;5030879;28;20032;-64
2020/12/11 02:06:50;;;;;;;25.42;14.07;;;2.60;83.00;;;;;;5027817;28;20108;-64
2020/12/11 02:09:16;;;;;;;32.20;15.23;;;2.60;83.10;;;;;;5013011;28;20470;-65
2020/12/11 02:11:41;;;;;;;28.13;15.20;;;2.60;83.00;;;;;;5033906;28;20041;-64
2020/12/11 02:14:09;;;;;;;27.75;15.30;;;2.50;83.00;;;;;;5033774;28;20036;-64
2020/12/11 02:16:34;;;;;;;29.67;13.85;;;2.60;83.10;;;;;;5034318;28;20067;-64
2020/12/11 02:19:00;;;;;;;30.83;15.23;;;2.50;82.90;;;;;;5033099;28;20052;-64
2020/12/11 02:21:25;;;;;;;26.88;13.85;;;2.50;82.90;;;;;;5033193;28;20041;-64
2020/12/11 02:23:51;;;;;;;29.35;15.07;;;2.50;83.00;;;;;;5033760;28;20032;-64
2020/12/11 02:26:17;;;;;;;29.00;15.35;;;2.50;83.00;;;;;;5030495;28;20511;-64
2020/12/11 02:28:42;;;;;;;27.92;14.60;;;2.50;83.00;;;;;;5032706;28;20536;-64
2020/12/11 02:31:08;;;;;;;23.60;14.02;;;2.50;83.00;;;;;;5033401;28;20493;-64
2020/12/11 02:33:33;;;;;;;31.52;15.82;;;2.50;83.00;;;;;;5032538;28;20044;-64
2020/12/11 02:35:59;;;;;;;24.42;13.98;;;2.50;83.10;;;;;;5034689;28;20036;-64
2020/12/11 02:38:24;;;;;;;29.50;15.00;;;2.50;83.10;;;;;;5033175;28;20032;-64
2020/12/11 02:40:53;;;;;;;28.25;14.45;;;2.50;83.00;;;;;;5032572;28;20100;-65
2020/12/11 02:43:19;;;;;;;26.58;14.30;;;2.50;83.00;;;;;;5034300;28;20018;-64
2020/12/11 02:45:46;;;;;;;27.83;14.13;;;2.50;83.00;;;;;;5032692;28;20038;-64
2020/12/11 02:48:13;;;;;;;26.45;15.00;;;2.50;83.10;;;;;;5033150;28;20087;-64
2020/12/11 02:50:39;;;;;;;25.83;15.02;;;2.50;82.90;;;;;;5009191;28;20025;-64
2020/12/11 02:53:05;;;;;;;29.25;15.48;;;2.50;82.90;;;;;;5030373;28;20037;-64
2020/12/11 02:55:31;;;;;;;26.40;14.85;;;2.50;82.90;;;;;;5029754;28;20125;-64
2020/12/11 02:57:56;;;;;;;24.17;13.80;;;2.50;82.80;;;;;;5033255;28;20599;-64
2020/12/11 03:00:22;;;;;;;25.15;14.77;;;2.50;82.70;;;;;;5028955;28;20033;-64
2020/12/11 03:02:48;;;;;;;25.05;13.80;;;2.50;82.80;;;;;;5032116;28;20038;-63
2020/12/11 03:05:13;;;;;;;26.77;13.98;;;2.40;82.70;;;;;;5028173;28;20049;-64
2020/12/11 03:07:39;;;;;;;23.45;13.93;;;2.40;82.70;;;;;;5030487;28;20030;-64
2020/12/11 03:10:04;;;;;;;23.10;13.90;;;2.50;82.70;;;;;;5028396;28;20549;-64
2020/12/11 03:12:30;;;;;;;23.05;13.38;;;2.40;82.70;;;;;;5026171;28;20527;-64
2020/12/11 03:14:56;;;;;;;23.65;13.77;;;2.50;82.80;;;;;;5030486;28;20101;-64
2020/12/11 03:17:21;;;;;;;22.85;12.95;;;2.50;82.70;;;;;;5013635;28;20106;-64
2020/12/11 03:19:47;;;;;;;24.48;13.77;;;2.50;82.60;;;;;;5031947;28;20396;-63
2020/12/11 03:22:12;;;;;;;19.80;11.95;;;2.50;82.60;;;;;;5028671;28;20025;-64
2020/12/11 03:24:38;;;;;;;22.17;12.75;;;2.50;82.60;;;;;;5029459;28;20021;-63
2020/12/11 03:27:04;;;;;;;20.48;12.07;;;2.50;82.50;;;;;;5031392;28;20393;-63
2020/12/11 03:29:29;;;;;;;20.50;11.85;;;2.50;82.50;;;;;;5031266;28;20393;-63
2020/12/11 03:31:55;;;;;;;22.10;12.63;;;2.50;82.50;;;;;;5032966;28;20106;-64
2020/12/11 03:34:20;;;;;;;22.48;12.18;;;2.40;82.40;;;;;;5031432;28;20191;-64
2020/12/11 03:36:49;;;;;;;22.15;12.93;;;2.40;82.50;;;;;;5032155;28;20025;-64
2020/12/11 03:39:14;;;;;;;22.52;13.30;;;2.40;82.40;;;;;;5030574;28;20102;-63
2020/12/11 03:41:40;;;;;;;21.80;12.88;;;2.30;82.30;;;;;;5033382;28;20478;-63
2020/12/11 03:44:06;;;;;;;22.25;13.40;;;2.40;82.40;;;;;;5032072;28;20045;-64
2020/12/11 03:46:32;;;;;;;24.17;14.13;;;2.30;82.40;;;;;;5032654;28;20027;-63
2020/12/11 03:48:59;;;;;;;25.70;14.52;;;2.30;82.40;;;;;;5032840;28;20140;-63
2020/12/11 03:51:25;;;;;;;22.75;13.40;;;2.30;82.40;;;;;;5030092;28;20048;-64
2020/12/11 03:53:50;;;;;;;26.55;15.38;;;2.20;82.40;;;;;;5028587;28;20382;-64
2020/12/11 03:56:18;;;;;;;28.10;14.38;;;2.20;82.50;;;;;;5024156;28;20095;-64
2020/12/11 03:58:44;;;;;;;24.88;15.07;;;2.10;82.40;;;;;;5033208;28;20035;-64
2020/12/11 04:01:13;;;;;;;27.15;14.75;;;2.10;82.40;;;;;;5031004;28;20041;-65
2020/12/11 04:03:39;;;;;;;25.70;15.07;;;2.10;82.50;;;;;;5032917;28;20026;-64
2020/12/11 04:06:14;;;;;;;24.17;14.85;;;2.00;82.60;;;;;;5031034;28;20028;-64
2020/12/11 04:08:40;;;;;;;27.67;15.00;;;2.00;82.70;;;;;;5031189;28;20104;-64
2020/12/11 04:11:12;;;;;;;29.13;15.45;;;2.00;82.70;;;;;;5028836;28;20116;-64
2020/12/11 04:13:38;;;;;;;27.48;15.07;;;2.00;82.70;;;;;;5029756;28;20083;-64
2020/12/11 04:16:04;;;;;;;30.05;16.20;;;1.90;82.70;;;;;;5032089;28;20440;-64
2020/12/11 04:18:30;;;;;;;29.30;16.02;;;1.90;82.70;;;;;;5031014;28;20037;-65
2020/12/11 04:20:59;;;;;;;31.02;16.48;;;1.80;82.70;;;;;;5011868;28;20060;-64
2020/12/11 04:23:25;;;;;;;27.33;15.20;;;1.90;82.80;;;;;;5030635;28;20075;-64
2020/12/11 04:25:52;;;;;;;28.17;15.57;;;1.80;82.90;;;;;;5033028;28;20025;-64
2020/12/11 04:28:18;;;;;;;29.92;16.27;;;1.80;82.90;;;;;;5012768;28;20049;-64
2020/12/11 04:30:43;;;;;;;28.58;16.00;;;1.80;82.90;;;;;;5024917;28;20413;-64
2020/12/11 04:33:09;;;;;;;30.98;16.15;;;1.80;82.90;;;;;;5028507;28;20052;-64
2020/12/11 04:35:35;;;;;;;30.33;16.45;;;1.70;82.90;;;;;;5031316;28;20469;-64
2020/12/11 04:38:01;;;;;;;34.45;17.35;;;1.70;83.00;;;;;;5030143;28;20095;-64
2020/12/11 04:40:27;;;;;;;29.50;16.25;;;1.70;83.10;;;;;;5035403;28;20425;-64
2020/12/11 04:42:53;;;;;;;32.95;17.50;;;1.70;83.10;;;;;;5031780;28;20130;-64
2020/12/11 04:45:19;;;;;;;32.25;17.15;;;1.70;83.00;;;;;;5032490;28;20152;-64
2020/12/11 04:47:46;;;;;;;33.88;17.05;;;1.70;83.00;;;;;;5028315;28;20469;-64
2020/12/11 04:50:15;;;;;;;32.85;17.63;;;1.70;83.00;;;;;;5031927;28;20367;-64
2020/12/11 04:52:43;;;;;;;30.50;17.52;;;1.70;83.10;;;;;;5027345;28;20038;-64
2020/12/11 04:55:14;;;;;;;30.70;17.08;;;1.60;83.10;;;;;;5031423;28;20029;-64
2020/12/11 04:57:45;;;;;;;32.63;17.77;;;1.60;83.20;;;;;;5030632;28;20034;-64
2020/12/11 05:00:11;;;;;;;33.00;16.65;;;1.60;83.20;;;;;;5028249;28;20017;-64
2020/12/11 05:02:40;;;;;;;32.15;16.52;;;1.60;83.20;;;;;;5025915;28;20049;-64
2020/12/11 05:05:06;;;;;;;31.33;15.90;;;1.50;83.20;;;;;;5025995;28;20035;-64
2020/12/11 05:07:33;;;;;;;34.78;17.40;;;1.50;83.30;;;;;;5030347;28;20115;-64
2020/12/11 05:09:58;;;;;;;29.98;16.40;;;1.50;83.30;;;;;;5029747;28;20119;-64
2020/12/11 05:12:24;;;;;;;32.28;16.98;;;1.50;83.30;;;;;;5031511;28;20374;-63
2020/12/11 05:15:17;;;;;;;33.38;17.10;;;1.50;83.30;;;;;;5029536;28;20030;-64
2020/12/11 05:17:43;;;;;;;32.47;16.50;;;1.40;83.40;;;;;;5026750;28;20030;-64
2020/12/11 05:20:10;;;;;;;33.90;18.15;;;1.40;83.40;;;;;;5030195;28;20091;-64
2020/12/11 05:22:38;;;;;;;35.10;17.52;;;1.40;83.40;;;;;;5029284;28;20046;-64
2020/12/11 05:25:11;;;;;;;31.30;16.45;;;1.40;83.50;;;;;;5031102;28;20026;-64
2020/12/11 05:27:39;;;;;;;30.15;16.02;;;1.40;83.50;;;;;;5029838;28;20212;-64
2020/12/11 05:30:08;;;;;;;32.47;17.15;;;1.40;83.50;;;;;;5028443;28;20427;-64
2020/12/11 05:32:54;;;;;;;33.47;17.02;;;1.40;83.60;;;;;;5028826;28;20482;-64
2020/12/11 05:35:21;;;;;;;32.17;17.10;;;1.40;83.60;;;;;;5030033;28;20079;-64
2020/12/11 05:38:02;;;;;;;31.15;16.35;;;1.40;83.60;;;;;;5028070;28;20068;-64
2020/12/11 05:40:41;;;;;;;34.25;17.27;;;1.30;83.60;;;;;;5028978;28;20109;-64
2020/12/11 05:43:09;;;;;;;34.22;17.63;;;1.30;83.50;;;;;;5024826;28;20686;-64
2020/12/11 05:45:37;;;;;;;30.17;17.00;;;1.30;84.00;;;;;;5030920;28;20107;-64
2020/12/11 05:48:05;;;;;;;34.00;17.45;;;1.30;83.50;;;;;;5032493;28;20036;-64
2020/12/11 05:50:31;;;;;;;33.67;17.60;;;1.30;83.60;;;;;;5032437;28;20432;-64
2020/12/11 05:52:57;;;;;;;33.20;16.90;;;1.20;83.50;;;;;;5032090;28;20029;-64
2020/12/11 05:55:23;;;;;;;31.42;17.35;;;1.20;83.50;;;;;;5033253;28;20393;-64
2020/12/11 05:57:53;;;;;;;29.92;15.50;;;1.20;83.50;;;;;;5033325;28;20117;-65
2020/12/11 06:00:19;;;;;;;31.65;16.48;;;1.20;83.60;;;;;;5013431;28;566452;-64
2020/12/11 06:02:50;;;;;;;31.38;16.30;;;1.10;83.50;;;;;;5029954;28;20080;-64
2020/12/11 06:05:18;;;;;;;31.45;16.02;;;1.10;83.60;;;;;;5025011;28;20034;-64
2020/12/11 06:07:45;;;;;;;33.47;16.90;;;1.10;83.70;;;;;;5029978;28;20044;-63
2020/12/11 06:10:19;;;;;;;33.03;16.98;;;1.10;83.70;;;;;;5026233;28;20032;-64
2020/12/11 06:12:46;;;;;;;34.97;17.73;;;1.10;83.70;;;;;;5035674;28;20072;-65
2020/12/11 06:15:21;;;;;;;32.80;17.15;;;1.10;83.80;;;;;;5034461;28;20033;-64
2020/12/11 06:17:53;;;;;;;33.10;15.88;;;1.00;83.70;;;;;;5033912;28;20061;-64
2020/12/11 06:20:20;;;;;;;34.00;16.92;;;1.10;83.80;;;;;;5032105;28;20493;-64
2020/12/11 06:22:45;;;;;;;32.55;16.33;;;1.10;83.80;;;;;;5011721;28;20127;-64
2020/12/11 06:25:27;;;;;;;34.30;18.35;;;1.00;83.80;;;;;;5039478;28;20026;-64
2020/12/11 06:27:55;;;;;;;37.90;18.23;;;1.00;83.90;;;;;;5027693;28;20053;-64
2020/12/11 06:30:28;;;;;;;35.83;16.83;;;1.10;83.90;;;;;;5033596;28;20029;-64
2020/12/11 06:32:54;;;;;;;33.85;17.05;;;1.10;83.80;;;;;;5034336;28;20442;-63
2020/12/11 06:35:19;;;;;;;31.05;16.52;;;1.00;83.60;;;;;;5035048;28;20064;-64
2020/12/11 06:37:45;;;;;;;32.88;16.70;;;1.00;83.60;;;;;;5034149;28;20121;-64
2020/12/11 06:40:11;;;;;;;39.90;18.80;;;1.00;83.70;;;;;;5032009;28;20051;-64
2020/12/11 06:42:39;;;;;;;33.90;17.88;;;0.90;83.90;;;;;;5015956;28;20034;-63
2020/12/11 06:45:20;;;;;;;40.58;20.13;;;1.00;84.00;;;;;;5029294;28;20021;-65
2020/12/11 06:48:12;;;;;;;37.88;17.77;;;1.00;84.00;;;;;;5033785;28;20109;-65
2020/12/11 06:51:07;;;;;;;33.78;17.75;;;1.10;84.00;;;;;;5033265;28;20104;-64
2020/12/11 06:53:41;;;;;;;31.33;16.42;;;1.10;83.60;;;;;;5034478;28;20048;-64
2020/12/11 06:56:07;;;;;;;30.45;16.25;;;1.10;83.40;;;;;;5034267;28;20037;-64
2020/12/11 06:58:32;;;;;;;36.40;17.52;;;1.10;83.50;;;;;;5034343;28;20085;-64
2020/12/11 07:00:58;;;;;;;34.75;17.73;;;1.00;83.50;;;;;;5032265;28;20091;-65
2020/12/11 07:03:28;;;;;;;31.50;15.73;;;0.90;83.60;;;;;;5033489;28;20383;-65
2020/12/11 07:06:04;;;;;;;36.65;16.95;;;0.90;83.60;;;;;;5034560;28;20025;-65
2020/12/11 07:08:29;;;;;;;36.00;17.73;;;0.90;83.70;;;;;;5034011;28;20041;-64
2020/12/11 07:11:02;;;;;;;34.22;18.00;;;0.80;83.80;;;;;;5030414;28;20080;-65
2020/12/11 07:13:28;;;;;;;31.88;16.60;;;0.80;83.90;;;;;;5024609;28;20029;-64
2020/12/11 07:16:00;;;;;;;36.08;17.40;;;0.80;83.90;;;;;;5032315;28;20132;-65
2020/12/11 07:18:26;;;;;;;35.00;16.83;;;0.80;83.80;;;;;;5034124;28;20022;-64
2020/12/11 07:20:56;;;;;;;33.10;17.40;;;0.80;83.70;;;;;;5033270;28;20030;-65
2020/12/11 07:23:23;;;;;;;31.27;15.65;;;0.80;83.70;;;;;;5033280;28;20466;-63
2020/12/11 07:25:50;;;;;;;32.47;16.00;;;0.80;83.80;;;;;;5033235;28;20109;-66
2020/12/11 07:28:16;;;;;;;32.53;16.88;;;0.70;83.70;;;;;;5033853;28;20490;-64
2020/12/11 07:30:43;;;;;;;34.55;16.75;;;0.70;83.80;;;;;;5033500;28;20032;-65
2020/12/11 07:33:10;;;;;;;31.65;16.52;;;0.70;83.80;;;;;;5032733;28;20406;-64
2020/12/11 07:35:46;;;;;;;31.23;16.02;;;0.70;83.80;;;;;;5034028;28;20021;-64
2020/12/11 07:38:12;;;;;;;37.63;17.98;;;0.70;83.90;;;;;;5027379;28;20045;-64
2020/12/11 07:40:38;;;;;;;37.35;17.33;;;0.70;83.80;;;;;;5032951;28;20026;-65
2020/12/11 07:43:04;;;;;;;34.30;15.95;;;0.70;83.80;;;;;;5028407;28;20028;-65
2020/12/11 07:45:33;;;;;;;32.55;17.25;;;0.70;83.90;;;;;;5033288;28;20381;-65
2020/12/11 07:47:59;;;;;;;31.38;15.55;;;0.70;83.90;;;;;;5032226;28;20037;-65
2020/12/11 07:50:26;;;;;;;32.75;16.58;;;0.70;83.80;;;;;;5032489;28;20029;-65
2020/12/11 07:52:53;;;;;;;35.33;16.35;;;0.70;83.90;;;;;;5014032;28;20478;-66
2020/12/11 07:55:21;;;;;;;39.10;18.42;;;0.70;83.90;;;;;;5032785;28;20029;-65
2020/12/11 07:57:54;;;;;;;31.75;15.75;;;0.70;83.90;;;;;;5033138;28;20040;-65
2020/12/11 08:00:20;;;;;;;31.33;16.33;;;0.80;83.90;;;;;;5031839;28;20033;-65
2020/12/11 08:02:57;;;;;;;32.55;16.95;;;0.80;83.80;;;;;;5032753;28;20045;-64
2020/12/11 08:05:24;;;;;;;33.15;16.67;;;0.80;83.80;;;;;;5036566;28;20018;-66
2020/12/11 08:07:52;;;;;;;31.23;15.98;;;0.90;83.80;;;;;;5015316;28;20033;-65
2020/12/11 08:10:19;;;;;;;30.45;16.25;;;0.90;83.80;;;;;;5032034;28;20420;-65
2020/12/11 08:12:46;;;;;;;34.63;16.92;;;0.90;83.80;;;;;;5032372;28;20108;-65
2020/12/11 08:15:28;;;;;;;38.13;17.58;;;0.90;83.80;;;;;;5032519;28;20478;-65
2020/12/11 08:18:08;;;;;;;33.17;16.30;;;1.00;83.80;;;;;;5032869;28;20579;-65
2020/12/11 08:20:49;;;;;;;30.60;15.40;;;1.00;83.70;;;;;;5031795;28;20507;-65
2020/12/11 08:23:40;;;;;;;34.85;16.83;;;1.00;83.60;;;;;;5014767;28;20029;-65
2020/12/11 08:26:07;;;;;;;36.88;16.70;;;1.10;83.70;;;;;;5030169;28;20041;-64
2020/12/11 08:28:33;;;;;;;32.42;17.30;;;1.10;83.50;;;;;;5014691;28;20049;-65
2020/12/11 08:31:13;;;;;;;32.50;16.55;;;1.10;83.50;;;;;;5031010;28;20077;-65
2020/12/11 08:33:38;;;;;;;33.83;17.23;;;1.10;83.60;;;;;;5031992;28;20033;-65
2020/12/11 08:36:04;;;;;;;32.60;17.10;;;1.20;83.60;;;;;;5025825;28;20026;-65
2020/12/11 08:38:29;;;;;;;30.10;15.60;;;1.20;83.40;;;;;;5028058;28;20425;-66
2020/12/11 08:40:55;;;;;;;32.70;15.77;;;1.20;83.40;;;;;;5009190;28;20022;-65
2020/12/11 08:43:32;;;;;;;31.15;15.55;;;1.20;83.40;;;;;;5011186;28;20026;-65
2020/12/11 08:46:10;;;;;;;32.17;17.10;;;1.30;83.50;;;;;;5014673;28;20025;-65
2020/12/11 08:49:18;;;;;;;35.10;17.90;;;1.40;83.40;;;;;;5029221;28;20405;-65
2020/12/11 08:51:41;;;;;;;36.13;17.20;;;1.50;83.40;;;;;;5011826;28;20504;-66
2020/12/11 08:54:08;;;;;;;34.55;17.90;;;1.50;83.20;;;;;;5028302;28;20029;-65
2020/12/11 08:56:34;;;;;;;32.53;16.83;;;1.50;83.20;;;;;;5031318;28;20477;-65
2020/12/11 08:58:59;;;;;;;33.58;17.15;;;1.50;83.20;;;;;;5031625;28;20041;-66
2020/12/11 09:01:25;;;;;;;33.40;17.52;;;1.60;83.20;;;;;;5031445;28;20029;-65
2020/12/11 09:03:51;;;;;;;32.78;17.95;;;1.60;83.20;;;;;;5024721;28;20071;-66
2020/12/11 09:06:18;;;;;;;30.98;16.83;;;1.70;83.30;;;;;;5031126;28;20078;-65
2020/12/11 09:08:46;;;;;;;28.85;15.73;;;1.80;83.30;;;;;;5032166;28;20036;-65
2020/12/11 09:11:12;;;;;;;32.03;16.50;;;1.80;83.20;;;;;;5031395;28;20041;-65
2020/12/11 09:13:38;;;;;;;29.63;16.67;;;1.90;83.20;;;;;;5032355;28;20026;-66
2020/12/11 09:16:03;;;;;;;30.33;15.15;;;2.00;83.10;;;;;;5032099;28;20017;-66
2020/12/11 09:18:29;;;;;;;32.97;17.05;;;2.00;82.90;;;;;;5032396;28;20041;-66
2020/12/11 09:20:55;;;;;;;32.25;17.13;;;2.10;82.90;;;;;;5035760;28;20072;-66
2020/12/11 09:23:20;;;;;;;29.50;15.95;;;2.20;83.00;;;;;;5036028;28;20042;-65
2020/12/11 09:25:46;;;;;;;33.00;16.67;;;2.30;82.90;;;;;;5031428;28;20113;-66
2020/12/11 09:28:15;;;;;;;31.25;16.02;;;2.40;82.80;;;;;;5035411;28;20486;-65
2020/12/11 09:30:42;;;;;;;32.35;16.60;;;2.30;82.40;;;;;;5012047;28;20034;-65
2020/12/11 09:33:16;;;;;;;26.67;15.20;;;2.40;82.50;;;;;;5032731;28;20052;-65
2020/12/11 09:35:41;;;;;;;28.63;16.13;;;2.40;82.40;;;;;;5036150;28;20026;-66
2020/12/11 09:38:07;;;;;;;28.60;16.08;;;2.40;82.40;;;;;;5035481;28;20056;-65
2020/12/11 09:40:45;;;;;;;30.52;16.08;;;2.40;82.30;;;;;;5030975;28;20036;-65
2020/12/11 09:46:24;;;;;;;33.33;16.70;;;2.50;82.20;;;;;;5035270;28;20028;-66
2020/12/11 09:54:19;;;;;;;30.10;16.33;;;2.40;82.20;;;;;;5035096;28;20068;-65
2020/12/11 09:56:45;;;;;;;31.27;15.40;;;2.40;82.20;;;;;;5034912;28;20071;-65
2020/12/11 09:59:27;;;;;;;29.35;15.48;;;2.50;82.70;;;;;;5035283;28;20033;-65
2020/12/11 10:02:10;;;;;;;28.17;15.70;;;2.50;82.10;;;;;;5035580;28;20478;-65
2020/12/11 10:04:36;;;;;;;28.48;15.93;;;2.50;82.20;;;;;;5030957;28;20046;-65
2020/12/11 10:07:02;;;;;;;29.77;15.57;;;2.50;82.20;;;;;;5034863;28;20022;-65
2020/12/11 10:09:27;;;;;;;30.17;16.40;;;2.50;82.10;;;;;;5035025;28;20037;-65
2020/12/11 10:11:54;;;;;;;32.22;16.45;;;2.60;82.00;;;;;;5035129;28;20041;-65
2020/12/11 10:16:55;;;;;;;29.73;15.95;;;2.70;81.80;;;;;;5016568;28;20044;-65
2020/12/11 10:19:21;;;;;;;29.98;15.80;;;2.70;81.80;;;;;;4997285;28;20055;-66
2020/12/11 10:21:51;;;;;;;29.05;15.27;;;2.70;81.80;;;;;;5013644;28;20116;-65
2020/12/11 10:24:18;;;;;;;26.70;14.00;;;2.70;81.80;;;;;;5019649;28;20026;-65
2020/12/11 10:26:44;;;;;;;28.17;15.38;;;2.80;81.80;;;;;;5034827;28;20026;-65
2020/12/11 10:29:11;;;;;;;28.63;15.18;;;2.80;81.70;;;;;;5034671;28;20021;-66
2020/12/11 10:31:41;;;;;;;28.85;15.50;;;2.90;81.80;;;;;;5016133;28;20044;-65
2020/12/11 10:34:07;;;;;;;30.75;15.40;;;3.00;81.80;;;;;;5035251;28;20029;-65
2020/12/11 10:36:33;;;;;;;27.50;15.05;;;3.00;81.60;;;;;;5034804;28;20037;-66
2020/12/11 10:38:58;;;;;;;29.63;15.55;;;3.10;81.70;;;;;;5034534;28;20073;-66
2020/12/11 10:41:25;;;;;;;30.08;16.35;;;3.10;81.50;;;;;;5034805;28;20540;-66
2020/12/11 10:43:51;;;;;;;27.27;15.80;;;3.10;81.50;;;;;;5034215;28;20034;-65
2020/12/11 10:46:17;;;;;;;25.90;14.10;;;3.10;81.50;;;;;;5034700;28;20021;-65
2020/12/11 10:48:43;;;;;;;26.83;15.02;;;3.20;81.30;;;;;;5034357;28;20547;-65
2020/12/11 10:51:13;;;;;;;29.45;15.45;;;3.20;81.30;;;;;;5034124;28;20424;-65
2020/12/11 10:53:41;;;;;;;26.55;14.93;;;3.20;81.20;;;;;;5026818;28;20072;-66
2020/12/11 10:56:08;;;;;;;26.83;14.73;;;3.20;81.10;;;;;;5026433;28;20013;-66
2020/12/11 10:58:33;;;;;;;30.13;15.13;;;3.20;81.10;;;;;;5032700;28;20520;-65
2020/12/11 11:01:01;;;;;;;26.92;14.85;;;3.20;81.00;;;;;;5033637;28;20025;-65
2020/12/11 11:03:27;;;;;;;29.42;15.55;;;3.20;81.20;;;;;;5034149;28;20117;-66
2020/12/11 11:05:55;;;;;;;27.83;15.13;;;3.20;81.20;;;;;;5034261;28;20029;-66
2020/12/11 11:08:21;;;;;;;28.83;15.77;;;3.10;81.10;;;;;;5034128;28;20041;-65
2020/12/11 11:10:49;;;;;;;30.80;15.23;;;3.10;81.30;;;;;;5033608;28;20025;-66
2020/12/11 11:13:27;;;;;;;25.40;14.88;;;3.10;81.30;;;;;;5033936;28;20025;-66
2020/12/11 11:15:55;;;;;;;28.92;15.60;;;3.10;81.20;;;;;;5034128;28;20030;-65
2020/12/11 11:18:58;;;;;;;27.48;14.32;;;3.20;81.30;;;;;;5033302;28;20038;-65
2020/12/11 11:21:33;;;;;;;27.53;15.27;;;3.20;81.30;;;;;;5031244;28;20095;-66
2020/12/11 11:24:15;;;;;;;27.98;15.00;;;3.20;81.20;;;;;;5033220;28;20022;-66
2020/12/11 11:29:09;;;;;;;26.77;14.32;;;3.30;81.30;;;;;;5033195;28;20067;-66
2020/12/11 11:31:35;;;;;;;26.58;14.80;;;3.40;81.30;;;;;;5033989;28;20017;-66
2020/12/11 11:34:01;;;;;;;28.10;14.98;;;3.50;81.20;;;;;;5033428;28;20100;-66
2020/12/11 11:36:28;;;;;;;26.42;14.68;;;3.50;81.00;;;;;;5033649;28;20098;-66
2020/12/11 11:38:55;;;;;;;25.00;14.98;;;3.60;81.10;;;;;;5033149;28;20033;-66
2020/12/11 11:46:51;;;;;;;27.20;14.90;;;3.70;81.10;;;;;;5033610;28;20055;-66
2020/12/11 11:49:23;;;;;;;30.33;16.13;;;3.70;80.90;;;;;;5033264;28;20371;-66
2020/12/11 11:51:59;;;;;;;26.70;15.63;;;3.70;80.80;;;;;;5032983;28;20025;-66
2020/12/11 11:54:25;;;;;;;27.40;14.90;;;3.70;80.90;;;;;;5026167;28;20045;-66
2020/12/11 11:56:50;;;;;;;23.67;13.40;;;3.70;81.10;;;;;;5016480;28;20021;-66
2020/12/11 11:59:16;;;;;;;26.70;14.40;;;3.60;81.00;;;;;;5029150;28;20048;-66
2020/12/11 12:01:41;;;;;;;28.83;15.55;;;3.60;81.60;;;;;;5033200;28;20119;-66
2020/12/11 12:04:09;;;;;;;27.80;15.55;;;3.60;81.20;;;;;;5032872;28;20079;-66
2020/12/11 12:06:35;;;;;;;31.65;15.57;;;3.60;81.30;;;;;;5033186;28;20021;-66
2020/12/11 12:09:01;;;;;;;26.38;14.40;;;3.70;81.30;;;;;;5033399;28;20021;-67
2020/12/11 12:11:29;;;;;;;28.20;15.18;;;3.70;81.20;;;;;;5031999;28;20069;-66
2020/12/11 12:13:54;;;;;;;30.55;15.45;;;3.60;81.10;;;;;;5015102;28;20025;-67
2020/12/11 12:16:20;;;;;;;30.13;15.50;;;3.60;81.20;;;;;;5032283;28;20544;-66
2020/12/11 12:18:48;;;;;;;25.65;14.82;;;3.60;81.20;;;;;;5033003;28;20477;-66
2020/12/11 12:21:25;;;;;;;29.75;15.52;;;3.60;81.20;;;;;;5032138;28;20101;-66
2020/12/11 12:29:18;;;;;;;28.38;15.85;;;3.60;81.40;;;;;;5032513;28;20075;-66
2020/12/11 12:31:53;;;;;;;27.75;15.38;;;3.60;81.50;;;;;;5014795;28;20029;-66
2020/12/11 12:37:30;;;;;;;27.55;14.90;;;3.60;81.50;;;;;;5032326;28;20450;-66
2020/12/11 12:43:04;;;;;;;27.65;14.23;;;3.70;81.30;;;;;;5031893;28;20041;-66
2020/12/11 12:45:30;;;;;;;25.55;14.23;;;3.80;81.20;;;;;;5032483;28;20024;-66
2020/12/11 12:47:56;;;;;;;25.50;14.68;;;3.90;81.00;;;;;;5032093;28;20482;-66
2020/12/11 12:50:21;;;;;;;27.20;14.95;;;3.90;80.90;;;;;;5031905;28;20367;-66
2020/12/11 12:52:48;;;;;;;25.50;14.55;;;4.00;81.00;;;;;;5032369;28;20032;-67
2020/12/11 12:55:17;;;;;;;24.98;13.38;;;4.10;81.10;;;;;;5031271;28;20029;-66
2020/12/11 12:57:53;;;;;;;27.10;14.63;;;4.10;81.00;;;;;;5013905;28;20025;-67
2020/12/11 13:03:13;;;;;;;27.17;14.27;;;4.10;81.00;;;;;;5053774;22;20043;-66
2020/12/11 13:05:36;;;;;;;26.65;14.30;;;4.10;81.00;;;;;;5072275;22;20064;-66
2020/12/11 13:08:03;;;;;;;24.08;13.38;;;4.00;80.90;;;;;;5050679;28;20480;-66
2020/12/11 13:10:33;;;;;;;25.13;14.48;;;4.00;80.90;;;;;;5049885;28;20102;-66
2020/12/11 13:12:58;;;;;;;25.58;14.40;;;3.90;80.90;;;;;;5032143;28;20033;-65
2020/12/11 13:15:24;;;;;;;26.63;14.82;;;3.90;81.00;;;;;;5031926;28;20409;-65
2020/12/11 13:17:50;;;;;;;25.30;14.00;;;3.90;81.10;;;;;;5031956;28;20452;-66